createdAt,value
2023-04-14T00:03:34.096Z,78.55
2023-04-14T00:08:35.690Z,78.69
2023-04-14T00:13:37.154Z,79.01
2023-04-14T00:18:38.469Z,78.48
2023-04-14T00:23:39.778Z,78.67
2023-04-14T00:28:41.312Z,79.07
2023-04-14T00:33:42.670Z,78.72
2023-04-14T00:38:44.009Z,78.73
2023-04-14T00:43:45.451Z,78.21
2023-04-14T00:48:47.345Z,78.87
2023-04-14T00:53:51.469Z,78.71
2023-04-14T00:58:53.726Z,78.54
2023-04-14T01:03:56.432Z,79.15
2023-04-14T01:08:59.600Z,79.59
2023-04-14T01:14:10.605Z,79.41
2023-04-14T01:19:36.944Z,80.04
2023-04-14T01:25:06.852Z,80.62
2023-04-14T01:30:28.267Z,80.09
2023-04-14T01:35:45.892Z,79.93
2023-04-14T01:40:50.355Z,80.45
2023-04-14T01:45:56.503Z,80.05
2023-04-14T01:50:58.777Z,80.75
2023-04-14T01:56:01.708Z,79.98
2023-04-14T02:01:04.422Z,80.60
2023-04-14T02:06:07.441Z,80.52
2023-04-14T02:11:12.938Z,80.98
2023-04-14T02:16:15.189Z,80.28
2023-04-14T02:21:18.337Z,80.84
2023-04-14T02:26:23.916Z,80.65
2023-04-14T02:31:29.053Z,80.40
2023-04-14T02:36:34.697Z,80.87
2023-04-14T02:41:38.259Z,80.64
2023-04-14T02:46:42.405Z,80.99
2023-04-14T02:51:46.179Z,81.02
2023-04-14T02:56:48.209Z,80.64
2023-04-14T03:01:50.765Z,80.60
2023-04-14T03:06:54.572Z,80.83
2023-04-14T03:11:57.375Z,80.76
2023-04-14T03:16:58.965Z,80.66
2023-04-14T03:22:00.857Z,80.39
2023-04-14T03:27:08.777Z,80.10
2023-04-14T03:32:11.729Z,80.07
2023-04-14T03:37:21.108Z,81.39
2023-04-14T03:42:26.029Z,81.65
2023-04-14T03:47:31.685Z,81.51
2023-04-14T03:52:34.633Z,81.06
2023-04-14T03:57:37.675Z,81.38
2023-04-14T04:02:40.252Z,81.55
2023-04-14T04:07:44.662Z,80.95
2023-04-14T04:12:48.655Z,80.85
2023-04-14T04:17:52.037Z,80.99
2023-04-14T04:22:56.744Z,81.55
2023-04-14T04:27:59.625Z,81.35
2023-04-14T04:33:04.765Z,82.00
2023-04-14T04:38:06.794Z,82.14
2023-04-14T04:43:08.214Z,82.25
2023-04-14T04:48:09.545Z,82.62
2023-04-14T04:53:12.122Z,83.18
2023-04-14T04:58:13.416Z,83.52
2023-04-14T05:03:14.836Z,83.37
2023-04-14T05:08:16.681Z,83.13
2023-04-14T05:13:18.035Z,82.64
2023-04-14T05:18:19.456Z,82.54
2023-04-14T05:23:20.884Z,83.23
2023-04-14T05:28:22.284Z,83.54
2023-04-14T05:33:23.665Z,83.78
2023-04-14T05:38:24.975Z,83.77
2023-04-14T05:43:26.397Z,83.38
2023-04-14T05:48:30.365Z,82.69
2023-04-14T05:53:31.703Z,82.40
2023-04-14T05:58:32.985Z,81.16
2023-04-14T06:03:35.410Z,81.26
2023-04-14T06:08:37.924Z,81.02
2023-04-14T06:13:39.232Z,81.40
2023-04-14T06:18:40.565Z,81.54
2023-04-14T06:23:41.986Z,80.90
2023-04-14T06:28:44.215Z,81.12
2023-04-14T06:33:45.996Z,81.38
2023-04-14T06:38:47.297Z,81.02
2023-04-14T06:43:48.593Z,81.55
2023-04-14T06:48:49.847Z,81.46
2023-04-14T06:53:51.433Z,81.95
2023-04-14T06:58:52.822Z,81.53
2023-04-14T07:03:54.206Z,80.01
2023-04-14T07:08:56.259Z,79.59
2023-04-14T07:13:57.615Z,78.73
2023-04-14T07:18:58.889Z,79.25
2023-04-14T07:24:00.653Z,78.18
2023-04-14T07:29:02.193Z,78.30
2023-04-14T07:34:03.686Z,76.60
2023-04-14T07:39:05.137Z,76.92
2023-04-14T07:44:06.743Z,76.96
2023-04-14T07:49:08.328Z,75.72
2023-04-14T07:54:09.782Z,75.82
2023-04-14T07:59:11.083Z,75.50
2023-04-14T08:04:12.582Z,76.41
2023-04-14T08:09:14.748Z,75.89
2023-04-14T08:14:16.069Z,75.17
2023-04-14T08:19:17.358Z,73.91
2023-04-14T08:24:18.664Z,73.83
2023-04-14T08:29:21.435Z,72.75
2023-04-14T08:34:28.344Z,72.50
2023-04-14T08:39:30.164Z,71.71
2023-04-14T08:44:32.048Z,70.94
2023-04-14T08:50:12.832Z,70.86
2023-04-14T08:55:15.966Z,70.45
2023-04-14T09:00:19.363Z,70.07
2023-04-14T09:05:20.850Z,69.43
2023-04-14T09:10:22.988Z,67.72
2023-04-14T09:15:27.309Z,65.90
2023-04-14T09:20:35.806Z,65.31
2023-04-14T09:25:42.316Z,64.34
2023-04-14T09:30:43.731Z,64.58
2023-04-14T09:35:48.685Z,63.04
2023-04-14T09:40:50.126Z,62.05
2023-04-14T09:45:51.971Z,61.39
2023-04-14T09:51:09.664Z,60.07
2023-04-14T09:56:12.383Z,59.65
2023-04-14T10:01:17.293Z,57.62
2023-04-14T10:06:20.626Z,56.46
2023-04-14T10:11:22.918Z,55.04
2023-04-14T10:16:25.579Z,52.84
2023-04-14T10:21:27.867Z,46.70
2023-04-14T10:26:30.030Z,37.44
2023-04-14T10:31:34.816Z,33.52
2023-04-14T10:36:37.087Z,34.84
2023-04-14T10:41:49.260Z,38.41
2023-04-14T10:46:52.057Z,37.92
2023-04-14T10:51:53.674Z,31.13
2023-04-14T10:57:14.567Z,26.05
2023-04-14T11:02:30.873Z,23.35
2023-04-14T11:07:47.031Z,22.68
2023-04-14T11:12:54.114Z,23.29
2023-04-14T11:18:11.088Z,20.94
2023-04-14T11:23:14.034Z,20.00
2023-04-14T11:28:15.331Z,18.73
2023-04-14T11:33:16.949Z,20.29
2023-04-14T11:38:18.333Z,17.86
2023-04-14T11:43:22.978Z,17.57
2023-04-14T11:48:24.448Z,16.87
2023-04-14T11:53:26.142Z,16.28
2023-04-14T11:58:28.778Z,16.05
2023-04-14T12:03:33.202Z,15.43
2023-04-14T12:08:34.757Z,16.14
2023-04-14T12:13:41.447Z,21.01
2023-04-14T12:18:44.093Z,18.52
2023-04-14T12:23:50.133Z,21.12
2023-04-14T12:28:57.984Z,23.01
2023-04-14T12:34:00.556Z,22.49
2023-04-14T12:39:06.663Z,25.17
2023-04-14T12:44:19.700Z,25.84
2023-04-14T12:49:38.599Z,25.99
2023-04-14T12:54:52.452Z,25.86
2023-04-14T12:59:53.806Z,26.10
2023-04-14T13:04:55.884Z,27.33
2023-04-14T13:09:57.561Z,28.26
2023-04-14T13:14:59.293Z,28.95
2023-04-14T13:20:00.922Z,29.42
2023-04-14T13:25:02.456Z,30.95
2023-04-14T13:30:04.274Z,29.11
2023-04-14T13:35:06.355Z,29.81
2023-04-14T13:40:08.733Z,29.75
2023-04-14T13:45:10.984Z,29.52
2023-04-14T13:50:12.533Z,30.16
2023-04-14T13:55:14.379Z,28.76
2023-04-14T14:00:16.283Z,27.67
2023-04-14T14:05:17.718Z,27.71
2023-04-14T14:10:19.180Z,29.21
2023-04-14T14:15:20.616Z,27.97
2023-04-14T14:20:21.981Z,28.96
2023-04-14T14:25:23.360Z,27.72
2023-04-14T14:30:24.817Z,29.25
2023-04-14T14:35:26.150Z,28.83
2023-04-14T14:40:28.829Z,29.57
2023-04-14T14:45:30.818Z,30.44
2023-04-14T14:50:33.204Z,29.63
2023-04-14T14:55:35.054Z,30.16
2023-04-14T15:00:36.871Z,30.61
2023-04-14T15:05:38.417Z,30.03
2023-04-14T15:10:40.476Z,29.72
2023-04-14T15:15:42.456Z,29.93
2023-04-14T15:20:43.891Z,30.66
2023-04-14T15:25:45.244Z,30.63
2023-04-14T15:30:47.140Z,30.62
2023-04-14T15:35:48.447Z,31.12
2023-04-14T15:40:49.878Z,31.30
2023-04-14T15:45:51.341Z,32.03
2023-04-14T15:50:52.684Z,32.35
2023-04-14T15:55:54.302Z,32.73
2023-04-14T16:00:55.620Z,33.39
2023-04-14T16:06:03.720Z,34.32
2023-04-14T16:11:05.199Z,34.52
2023-04-14T16:16:07.474Z,34.59
2023-04-14T16:21:08.892Z,33.60
2023-04-14T16:26:10.506Z,33.37
2023-04-14T16:31:12.109Z,34.34
2023-04-14T16:36:13.463Z,34.39
2023-04-14T16:41:14.745Z,34.39
2023-04-14T16:46:16.534Z,35.04
2023-04-14T16:51:17.951Z,35.71
2023-04-14T16:56:20.609Z,34.90
2023-04-14T17:01:22.372Z,35.33
2023-04-14T17:06:23.757Z,35.53
2023-04-14T17:11:25.260Z,35.21
2023-04-14T17:16:27.277Z,35.54
2023-04-14T17:21:28.689Z,35.38
2023-04-14T17:26:30.055Z,35.18
2023-04-14T17:31:31.466Z,35.24
2023-04-14T17:36:33.818Z,35.92
2023-04-14T17:41:35.442Z,37.50
2023-04-14T17:46:36.893Z,36.84
2023-04-14T17:51:38.313Z,36.52
2023-04-14T17:56:39.789Z,37.17
2023-04-14T18:01:41.752Z,37.15
2023-04-14T18:06:43.089Z,38.07
2023-04-14T18:11:44.592Z,38.19
2023-04-14T18:16:45.936Z,38.82
2023-04-14T18:21:48.201Z,39.24
2023-04-14T18:26:51.220Z,39.15
2023-04-14T18:31:52.962Z,39.04
2023-04-14T18:36:54.397Z,39.68
2023-04-14T18:41:55.682Z,40.18
2023-04-14T18:46:57.494Z,40.69
2023-04-14T18:51:58.815Z,41.07
2023-04-14T18:57:00.928Z,41.74
2023-04-14T19:02:02.481Z,41.80
2023-04-14T19:07:03.973Z,41.89
2023-04-14T19:12:05.959Z,41.76
2023-04-14T19:17:08.589Z,42.07
2023-04-14T19:22:10.005Z,42.48
2023-04-14T19:27:11.371Z,42.47
2023-04-14T19:32:12.795Z,43.07
2023-04-14T19:37:14.784Z,42.13
2023-04-14T19:42:16.163Z,42.71
2023-04-14T19:47:17.630Z,43.10
2023-04-14T19:52:19.112Z,44.39
2023-04-14T19:57:21.681Z,45.23
2023-04-14T20:02:29.848Z,45.64
2023-04-14T20:07:31.982Z,45.69
2023-04-14T20:12:34.584Z,46.35
2023-04-14T20:17:36.451Z,46.40
2023-04-14T20:22:40.926Z,46.57
2023-04-14T20:27:42.150Z,47.78
2023-04-14T20:32:43.721Z,48.01
2023-04-14T20:37:45.034Z,48.13
2023-04-14T20:42:46.382Z,47.96
2023-04-14T20:47:48.587Z,48.29
2023-04-14T20:52:50.494Z,48.88
2023-04-14T20:57:52.906Z,49.73
2023-04-14T21:02:54.431Z,50.57
2023-04-14T21:07:56.343Z,50.56
2023-04-14T21:15:11.411Z,50.72
2023-04-14T21:18:21.667Z,50.38
2023-04-14T21:23:23.056Z,51.10
2023-04-14T21:28:24.492Z,51.13
2023-04-14T21:33:27.031Z,51.66
2023-04-14T21:38:28.353Z,51.83
2023-04-14T21:43:29.691Z,51.52
2023-04-14T21:48:31.173Z,51.27
2023-04-14T21:53:32.499Z,50.79
2023-04-14T21:58:33.866Z,50.89
2023-04-14T22:03:37.867Z,50.67
2023-04-14T22:08:40.616Z,50.63
2023-04-14T22:13:42.154Z,51.18
2023-04-14T22:18:43.534Z,51.56
2023-04-14T22:23:45.177Z,51.64
2023-04-14T22:28:46.854Z,52.45
2023-04-14T22:33:48.172Z,53.20
2023-04-14T22:38:49.497Z,53.34
2023-04-14T22:43:51.287Z,53.54
2023-04-14T22:48:52.629Z,53.22
2023-04-14T22:53:53.963Z,53.09
2023-04-14T22:58:59.018Z,53.09
2023-04-14T23:04:00.509Z,53.32
2023-04-14T23:09:02.217Z,53.66
2023-04-14T23:14:05.299Z,53.68
2023-04-14T23:19:06.654Z,53.48
2023-04-14T23:24:10.644Z,53.50
2023-04-14T23:29:11.979Z,54.12
2023-04-14T23:34:13.811Z,54.12
2023-04-14T23:39:15.164Z,54.15
2023-04-14T23:44:16.437Z,55.03
2023-04-14T23:49:24.356Z,56.96
2023-04-14T23:54:37.264Z,55.14
2023-04-14T23:59:38.597Z,55.63
